sensor_id;sensor_type;location;lat;lon;timestamp;P1;durP1;ratioP1;P2;durP2;ratioP2
30571;SDS011;17348;50.948;10.696;2022-09-09T00:02:22;6.25;;;1.25;;
30571;SDS011;17348;50.948;10.696;2022-09-09T00:05:30;5.70;;;1.23;;
30571;SDS011;17348;50.948;10.696;2022-09-09T00:08:38;1.67;;;0.73;;
30571;SDS011;17348;50.948;10.696;2022-09-09T00:11:49;3.78;;;0.90;;
30571;SDS011;17348;50.948;10.696;2022-09-09T00:14:54;3.65;;;1.30;;
30571;SDS011;17348;50.948;10.696;2022-09-09T00:18:01;5.15;;;1.35;;
30571;SDS011;17348;50.948;10.696;2022-09-09T00:21:12;5.78;;;1.00;;
30571;SDS011;17348;50.948;10.696;2022-09-09T00:24:23;5.90;;;1.00;;
30571;SDS011;17348;50.948;10.696;2022-09-09T00:27:30;5.28;;;1.10;;
30571;SDS011;17348;50.948;10.696;2022-09-09T00:30:36;5.38;;;0.80;;
30571;SDS011;17348;50.948;10.696;2022-09-09T00:33:39;4.15;;;1.08;;
30571;SDS011;17348;50.948;10.696;2022-09-09T00:36:43;3.03;;;1.40;;
30571;SDS011;17348;50.948;10.696;2022-09-09T00:39:46;3.42;;;1.10;;
30571;SDS011;17348;50.948;10.696;2022-09-09T00:42:58;7.35;;;1.63;;
30571;SDS011;17348;50.948;10.696;2022-09-09T00:49:50;3.20;;;0.95;;
30571;SDS011;17348;50.948;10.696;2022-09-09T00:53:05;6.35;;;1.30;;
30571;SDS011;17348;50.948;10.696;2022-09-09T00:56:22;4.55;;;1.30;;
30571;SDS011;17348;50.948;10.696;2022-09-09T00:59:32;7.28;;;1.52;;
30571;SDS011;17348;50.948;10.696;2022-09-09T01:02:45;7.93;;;1.05;;
30571;SDS011;17348;50.948;10.696;2022-09-09T01:06:00;3.55;;;0.80;;
30571;SDS011;17348;50.948;10.696;2022-09-09T01:09:11;9.32;;;1.45;;
30571;SDS011;17348;50.948;10.696;2022-09-09T01:12:24;8.48;;;1.23;;
30571;SDS011;17348;50.948;10.696;2022-09-09T01:15:30;9.00;;;1.60;;
30571;SDS011;17348;50.948;10.696;2022-09-09T01:18:34;5.32;;;1.23;;
30571;SDS011;17348;50.948;10.696;2022-09-09T01:21:43;9.90;;;2.38;;
30571;SDS011;17348;50.948;10.696;2022-09-09T01:25:05;8.02;;;1.33;;
30571;SDS011;17348;50.948;10.696;2022-09-09T01:28:22;4.55;;;0.98;;
30571;SDS011;17348;50.948;10.696;2022-09-09T01:31:29;4.63;;;1.33;;
30571;SDS011;17348;50.948;10.696;2022-09-09T01:34:37;4.28;;;1.45;;
30571;SDS011;17348;50.948;10.696;2022-09-09T01:37:41;3.35;;;1.08;;
30571;SDS011;17348;50.948;10.696;2022-09-09T01:40:44;5.18;;;0.82;;
30571;SDS011;17348;50.948;10.696;2022-09-09T01:43:47;8.38;;;0.90;;
30571;SDS011;17348;50.948;10.696;2022-09-09T01:46:51;4.15;;;1.38;;
30571;SDS011;17348;50.948;10.696;2022-09-09T01:49:53;4.72;;;1.20;;
30571;SDS011;17348;50.948;10.696;2022-09-09T01:52:56;1.73;;;0.98;;
30571;SDS011;17348;50.948;10.696;2022-09-09T01:56:02;2.22;;;0.82;;
30571;SDS011;17348;50.948;10.696;2022-09-09T01:59:23;2.33;;;1.00;;
30571;SDS011;17348;50.948;10.696;2022-09-09T02:02:35;5.78;;;1.17;;
30571;SDS011;17348;50.948;10.696;2022-09-09T02:05:45;5.28;;;0.90;;
30571;SDS011;17348;50.948;10.696;2022-09-09T02:08:55;7.37;;;1.43;;
30571;SDS011;17348;50.948;10.696;2022-09-09T02:12:02;3.17;;;0.98;;
30571;SDS011;17348;50.948;10.696;2022-09-09T02:15:16;2.72;;;0.93;;
30571;SDS011;17348;50.948;10.696;2022-09-09T02:18:24;8.18;;;1.27;;
30571;SDS011;17348;50.948;10.696;2022-09-09T02:21:30;3.70;;;0.90;;
30571;SDS011;17348;50.948;10.696;2022-09-09T02:24:36;7.13;;;1.08;;
30571;SDS011;17348;50.948;10.696;2022-09-09T02:27:41;5.38;;;0.90;;
30571;SDS011;17348;50.948;10.696;2022-09-09T02:30:48;4.63;;;1.20;;
30571;SDS011;17348;50.948;10.696;2022-09-09T02:33:56;8.55;;;1.10;;
30571;SDS011;17348;50.948;10.696;2022-09-09T02:37:01;2.65;;;0.80;;
30571;SDS011;17348;50.948;10.696;2022-09-09T02:40:06;6.22;;;1.30;;
30571;SDS011;17348;50.948;10.696;2022-09-09T02:43:11;3.72;;;0.88;;
30571;SDS011;17348;50.948;10.696;2022-09-09T02:46:23;8.50;;;1.05;;
30571;SDS011;17348;50.948;10.696;2022-09-09T02:49:40;6.10;;;0.85;;
30571;SDS011;17348;50.948;10.696;2022-09-09T02:52:54;7.97;;;1.00;;
30571;SDS011;17348;50.948;10.696;2022-09-09T02:56:08;6.78;;;0.80;;
30571;SDS011;17348;50.948;10.696;2022-09-09T02:59:14;3.85;;;1.00;;
30571;SDS011;17348;50.948;10.696;2022-09-09T03:02:18;4.45;;;1.98;;
30571;SDS011;17348;50.948;10.696;2022-09-09T03:05:20;3.45;;;0.93;;
30571;SDS011;17348;50.948;10.696;2022-09-09T03:08:23;3.03;;;0.50;;
30571;SDS011;17348;50.948;10.696;2022-09-09T03:11:25;11.65;;;2.38;;
30571;SDS011;17348;50.948;10.696;2022-09-09T03:14:27;2.33;;;0.88;;
30571;SDS011;17348;50.948;10.696;2022-09-09T03:17:32;4.40;;;0.90;;
30571;SDS011;17348;50.948;10.696;2022-09-09T03:20:34;2.20;;;0.93;;
30571;SDS011;17348;50.948;10.696;2022-09-09T03:23:37;3.85;;;1.10;;
30571;SDS011;17348;50.948;10.696;2022-09-09T03:26:39;10.93;;;1.42;;
30571;SDS011;17348;50.948;10.696;2022-09-09T03:29:41;2.30;;;0.70;;
30571;SDS011;17348;50.948;10.696;2022-09-09T03:32:45;2.08;;;0.98;;
30571;SDS011;17348;50.948;10.696;2022-09-09T03:35:48;4.10;;;1.38;;
30571;SDS011;17348;50.948;10.696;2022-09-09T03:38:51;2.40;;;0.70;;
30571;SDS011;17348;50.948;10.696;2022-09-09T03:41:54;8.80;;;0.90;;
30571;SDS011;17348;50.948;10.696;2022-09-09T03:44:56;3.35;;;0.98;;
30571;SDS011;17348;50.948;10.696;2022-09-09T03:48:01;5.13;;;1.23;;
30571;SDS011;17348;50.948;10.696;2022-09-09T03:51:05;5.63;;;1.10;;
30571;SDS011;17348;50.948;10.696;2022-09-09T03:54:07;10.13;;;1.00;;
30571;SDS011;17348;50.948;10.696;2022-09-09T03:57:10;3.42;;;1.08;;
30571;SDS011;17348;50.948;10.696;2022-09-09T04:00:14;1.88;;;0.85;;
30571;SDS011;17348;50.948;10.696;2022-09-09T04:03:18;4.75;;;1.00;;
30571;SDS011;17348;50.948;10.696;2022-09-09T04:06:20;9.75;;;1.27;;
30571;SDS011;17348;50.948;10.696;2022-09-09T04:09:24;3.55;;;1.10;;
30571;SDS011;17348;50.948;10.696;2022-09-09T04:12:26;3.03;;;1.20;;
30571;SDS011;17348;50.948;10.696;2022-09-09T04:15:28;6.90;;;0.90;;
30571;SDS011;17348;50.948;10.696;2022-09-09T04:18:32;7.45;;;0.70;;
30571;SDS011;17348;50.948;10.696;2022-09-09T04:21:35;3.63;;;1.02;;
30571;SDS011;17348;50.948;10.696;2022-09-09T04:24:38;2.15;;;1.10;;
30571;SDS011;17348;50.948;10.696;2022-09-09T04:27:40;4.75;;;1.92;;
30571;SDS011;17348;50.948;10.696;2022-09-09T04:30:43;3.28;;;0.70;;
30571;SDS011;17348;50.948;10.696;2022-09-09T04:33:48;5.05;;;1.65;;
30571;SDS011;17348;50.948;10.696;2022-09-09T04:36:50;1.40;;;0.73;;
30571;SDS011;17348;50.948;10.696;2022-09-09T04:39:53;4.95;;;1.58;;
30571;SDS011;17348;50.948;10.696;2022-09-09T04:42:57;1.77;;;0.68;;
30571;SDS011;17348;50.948;10.696;2022-09-09T04:45:59;5.30;;;1.15;;
30571;SDS011;17348;50.948;10.696;2022-09-09T04:49:03;6.43;;;0.98;;
30571;SDS011;17348;50.948;10.696;2022-09-09T04:52:05;2.97;;;0.95;;
30571;SDS011;17348;50.948;10.696;2022-09-09T04:55:08;12.30;;;0.93;;
30571;SDS011;17348;50.948;10.696;2022-09-09T04:58:11;5.03;;;1.33;;
30571;SDS011;17348;50.948;10.696;2022-09-09T05:01:14;3.80;;;1.00;;
30571;SDS011;17348;50.948;10.696;2022-09-09T05:04:19;5.55;;;1.20;;
30571;SDS011;17348;50.948;10.696;2022-09-09T05:07:21;3.88;;;1.10;;
30571;SDS011;17348;50.948;10.696;2022-09-09T05:10:23;4.55;;;1.10;;
30571;SDS011;17348;50.948;10.696;2022-09-09T05:13:26;3.92;;;1.13;;
30571;SDS011;17348;50.948;10.696;2022-09-09T05:16:29;4.25;;;1.33;;
30571;SDS011;17348;50.948;10.696;2022-09-09T05:19:33;2.58;;;0.90;;
30571;SDS011;17348;50.948;10.696;2022-09-09T05:22:35;2.78;;;1.23;;
30571;SDS011;17348;50.948;10.696;2022-09-09T05:25:38;3.08;;;0.90;;
30571;SDS011;17348;50.948;10.696;2022-09-09T05:28:40;2.38;;;0.95;;
30571;SDS011;17348;50.948;10.696;2022-09-09T05:31:43;9.77;;;1.25;;
30571;SDS011;17348;50.948;10.696;2022-09-09T05:34:46;4.07;;;0.90;;
30571;SDS011;17348;50.948;10.696;2022-09-09T05:37:48;12.57;;;0.93;;
30571;SDS011;17348;50.948;10.696;2022-09-09T05:40:51;1.90;;;0.75;;
30571;SDS011;17348;50.948;10.696;2022-09-09T05:43:53;1.25;;;0.52;;
30571;SDS011;17348;50.948;10.696;2022-09-09T05:46:56;4.45;;;1.08;;
30571;SDS011;17348;50.948;10.696;2022-09-09T05:50:00;2.83;;;0.82;;
30571;SDS011;17348;50.948;10.696;2022-09-09T05:53:02;10.23;;;1.15;;
30571;SDS011;17348;50.948;10.696;2022-09-09T05:56:05;4.15;;;0.95;;
30571;SDS011;17348;50.948;10.696;2022-09-09T05:59:11;4.60;;;1.00;;
30571;SDS011;17348;50.948;10.696;2022-09-09T06:02:15;8.50;;;1.08;;
30571;SDS011;17348;50.948;10.696;2022-09-09T06:05:19;1.73;;;0.63;;
30571;SDS011;17348;50.948;10.696;2022-09-09T06:08:23;2.35;;;0.85;;
30571;SDS011;17348;50.948;10.696;2022-09-09T06:11:26;2.33;;;0.60;;
30571;SDS011;17348;50.948;10.696;2022-09-09T06:14:31;8.35;;;1.27;;
30571;SDS011;17348;50.948;10.696;2022-09-09T06:17:33;3.85;;;0.68;;
30571;SDS011;17348;50.948;10.696;2022-09-09T06:20:37;9.45;;;1.02;;
30571;SDS011;17348;50.948;10.696;2022-09-09T06:23:39;7.25;;;0.98;;
30571;SDS011;17348;50.948;10.696;2022-09-09T06:26:42;4.95;;;0.88;;
30571;SDS011;17348;50.948;10.696;2022-09-09T06:29:45;7.47;;;1.52;;
30571;SDS011;17348;50.948;10.696;2022-09-09T06:32:48;4.20;;;0.80;;
30571;SDS011;17348;50.948;10.696;2022-09-09T06:35:52;2.58;;;1.30;;
30571;SDS011;17348;50.948;10.696;2022-09-09T06:38:55;11.25;;;1.23;;
30571;SDS011;17348;50.948;10.696;2022-09-09T06:41:57;4.97;;;0.95;;
30571;SDS011;17348;50.948;10.696;2022-09-09T06:45:00;6.15;;;0.77;;
30571;SDS011;17348;50.948;10.696;2022-09-09T06:48:02;5.50;;;1.10;;
30571;SDS011;17348;50.948;10.696;2022-09-09T06:51:06;6.22;;;1.20;;
30571;SDS011;17348;50.948;10.696;2022-09-09T06:54:11;4.50;;;0.95;;
30571;SDS011;17348;50.948;10.696;2022-09-09T06:57:14;8.38;;;1.00;;
30571;SDS011;17348;50.948;10.696;2022-09-09T07:00:16;3.33;;;0.85;;
30571;SDS011;17348;50.948;10.696;2022-09-09T07:03:18;4.55;;;1.10;;
30571;SDS011;17348;50.948;10.696;2022-09-09T07:06:23;5.50;;;0.90;;
30571;SDS011;17348;50.948;10.696;2022-09-09T07:09:26;1.63;;;0.95;;
30571;SDS011;17348;50.948;10.696;2022-09-09T07:12:30;3.97;;;0.98;;
30571;SDS011;17348;50.948;10.696;2022-09-09T07:15:32;1.73;;;0.90;;
30571;SDS011;17348;50.948;10.696;2022-09-09T07:18:35;1.88;;;0.80;;
30571;SDS011;17348;50.948;10.696;2022-09-09T07:21:38;6.82;;;1.02;;
30571;SDS011;17348;50.948;10.696;2022-09-09T07:24:41;8.68;;;1.13;;
30571;SDS011;17348;50.948;10.696;2022-09-09T07:27:45;3.30;;;0.73;;
30571;SDS011;17348;50.948;10.696;2022-09-09T07:30:52;3.25;;;0.90;;
30571;SDS011;17348;50.948;10.696;2022-09-09T07:33:55;3.35;;;1.45;;
30571;SDS011;17348;50.948;10.696;2022-09-09T07:36:59;4.70;;;0.80;;
30571;SDS011;17348;50.948;10.696;2022-09-09T07:40:02;2.00;;;1.33;;
30571;SDS011;17348;50.948;10.696;2022-09-09T07:43:05;5.22;;;1.17;;
30571;SDS011;17348;50.948;10.696;2022-09-09T07:46:08;7.10;;;0.90;;
30571;SDS011;17348;50.948;10.696;2022-09-09T07:49:11;2.72;;;0.90;;
30571;SDS011;17348;50.948;10.696;2022-09-09T07:52:15;2.13;;;1.00;;
30571;SDS011;17348;50.948;10.696;2022-09-09T07:55:17;2.25;;;1.13;;
30571;SDS011;17348;50.948;10.696;2022-09-09T07:58:20;3.75;;;0.77;;
30571;SDS011;17348;50.948;10.696;2022-09-09T08:01:23;6.50;;;0.93;;
30571;SDS011;17348;50.948;10.696;2022-09-09T08:04:27;5.50;;;1.17;;
30571;SDS011;17348;50.948;10.696;2022-09-09T08:07:31;4.60;;;1.40;;
30571;SDS011;17348;50.948;10.696;2022-09-09T08:10:33;4.13;;;0.95;;
30571;SDS011;17348;50.948;10.696;2022-09-09T08:13:36;3.35;;;1.13;;
30571;SDS011;17348;50.948;10.696;2022-09-09T08:16:39;10.45;;;0.93;;
30571;SDS011;17348;50.948;10.696;2022-09-09T08:19:42;7.55;;;0.95;;
30571;SDS011;17348;50.948;10.696;2022-09-09T08:22:46;6.45;;;1.10;;
30571;SDS011;17348;50.948;10.696;2022-09-09T08:25:50;3.55;;;1.35;;
30571;SDS011;17348;50.948;10.696;2022-09-09T08:28:53;6.63;;;1.27;;
30571;SDS011;17348;50.948;10.696;2022-09-09T08:31:58;5.15;;;1.30;;
30571;SDS011;17348;50.948;10.696;2022-09-09T08:35:00;1.95;;;1.20;;
30571;SDS011;17348;50.948;10.696;2022-09-09T08:38:04;4.60;;;1.23;;
30571;SDS011;17348;50.948;10.696;2022-09-09T08:41:17;6.70;;;1.42;;
30571;SDS011;17348;50.948;10.696;2022-09-09T08:44:37;5.97;;;1.25;;
30571;SDS011;17348;50.948;10.696;2022-09-09T08:48:03;7.82;;;0.90;;
30571;SDS011;17348;50.948;10.696;2022-09-09T08:51:17;2.67;;;0.93;;
30571;SDS011;17348;50.948;10.696;2022-09-09T08:54:21;2.83;;;0.80;;
30571;SDS011;17348;50.948;10.696;2022-09-09T08:57:24;3.60;;;1.27;;
30571;SDS011;17348;50.948;10.696;2022-09-09T09:00:30;6.95;;;1.08;;
30571;SDS011;17348;50.948;10.696;2022-09-09T09:03:43;10.13;;;1.08;;
30571;SDS011;17348;50.948;10.696;2022-09-09T09:06:54;5.13;;;1.15;;
30571;SDS011;17348;50.948;10.696;2022-09-09T09:10:09;4.65;;;1.50;;
30571;SDS011;17348;50.948;10.696;2022-09-09T09:13:17;5.57;;;1.00;;
30571;SDS011;17348;50.948;10.696;2022-09-09T09:16:23;5.78;;;1.30;;
30571;SDS011;17348;50.948;10.696;2022-09-09T09:19:33;4.28;;;1.05;;
30571;SDS011;17348;50.948;10.696;2022-09-09T09:22:40;3.28;;;1.00;;
30571;SDS011;17348;50.948;10.696;2022-09-09T09:25:50;3.42;;;1.23;;
30571;SDS011;17348;50.948;10.696;2022-09-09T09:28:58;5.75;;;1.15;;
30571;SDS011;17348;50.948;10.696;2022-09-09T09:32:03;5.70;;;1.10;;
30571;SDS011;17348;50.948;10.696;2022-09-09T09:35:06;8.57;;;0.85;;
30571;SDS011;17348;50.948;10.696;2022-09-09T09:38:16;2.88;;;1.00;;
30571;SDS011;17348;50.948;10.696;2022-09-09T09:41:29;2.05;;;0.95;;
30571;SDS011;17348;50.948;10.696;2022-09-09T09:44:33;4.70;;;1.02;;
30571;SDS011;17348;50.948;10.696;2022-09-09T09:47:37;3.85;;;1.08;;
30571;SDS011;17348;50.948;10.696;2022-09-09T09:50:46;3.92;;;0.73;;
30571;SDS011;17348;50.948;10.696;2022-09-09T09:53:51;3.03;;;0.80;;
30571;SDS011;17348;50.948;10.696;2022-09-09T09:56:55;3.65;;;0.88;;
30571;SDS011;17348;50.948;10.696;2022-09-09T10:00:12;2.92;;;1.23;;
30571;SDS011;17348;50.948;10.696;2022-09-09T10:03:20;11.73;;;1.42;;
30571;SDS011;17348;50.948;10.696;2022-09-09T10:06:31;5.80;;;0.98;;
30571;SDS011;17348;50.948;10.696;2022-09-09T10:09:34;3.85;;;1.10;;
30571;SDS011;17348;50.948;10.696;2022-09-09T10:12:40;5.68;;;1.17;;
30571;SDS011;17348;50.948;10.696;2022-09-09T10:15:52;7.47;;;1.48;;
30571;SDS011;17348;50.948;10.696;2022-09-09T10:22:14;6.57;;;1.00;;
30571;SDS011;17348;50.948;10.696;2022-09-09T10:25:29;5.18;;;0.90;;
30571;SDS011;17348;50.948;10.696;2022-09-09T10:28:48;3.03;;;1.27;;
30571;SDS011;17348;50.948;10.696;2022-09-09T10:32:05;3.85;;;1.15;;
30571;SDS011;17348;50.948;10.696;2022-09-09T10:35:22;3.35;;;0.80;;
30571;SDS011;17348;50.948;10.696;2022-09-09T10:38:28;1.27;;;0.88;;
30571;SDS011;17348;50.948;10.696;2022-09-09T10:41:39;2.63;;;0.88;;
30571;SDS011;17348;50.948;10.696;2022-09-09T10:44:54;9.38;;;0.95;;
30571;SDS011;17348;50.948;10.696;2022-09-09T10:48:18;0.93;;;0.52;;
30571;SDS011;17348;50.948;10.696;2022-09-09T10:51:33;2.55;;;0.68;;
30571;SDS011;17348;50.948;10.696;2022-09-09T10:54:44;1.85;;;0.68;;
30571;SDS011;17348;50.948;10.696;2022-09-09T10:57:58;2.22;;;0.90;;
30571;SDS011;17348;50.948;10.696;2022-09-09T11:01:05;5.78;;;0.98;;
30571;SDS011;17348;50.948;10.696;2022-09-09T11:04:17;8.15;;;1.00;;
30571;SDS011;17348;50.948;10.696;2022-09-09T11:07:25;5.32;;;0.93;;
30571;SDS011;17348;50.948;10.696;2022-09-09T11:10:37;5.38;;;0.85;;
30571;SDS011;17348;50.948;10.696;2022-09-09T11:13:44;13.45;;;0.82;;
30571;SDS011;17348;50.948;10.696;2022-09-09T11:16:53;4.63;;;0.93;;
30571;SDS011;17348;50.948;10.696;2022-09-09T11:20:00;6.18;;;0.95;;
30571;SDS011;17348;50.948;10.696;2022-09-09T11:23:03;3.78;;;0.70;;
30571;SDS011;17348;50.948;10.696;2022-09-09T11:26:11;4.25;;;1.15;;
30571;SDS011;17348;50.948;10.696;2022-09-09T11:29:24;1.85;;;0.50;;
30571;SDS011;17348;50.948;10.696;2022-09-09T11:33:02;6.25;;;1.10;;
30571;SDS011;17348;50.948;10.696;2022-09-09T11:36:31;3.90;;;0.88;;
30571;SDS011;17348;50.948;10.696;2022-09-09T11:39:57;1.60;;;0.88;;
30571;SDS011;17348;50.948;10.696;2022-09-09T11:43:11;4.53;;;0.88;;
30571;SDS011;17348;50.948;10.696;2022-09-09T11:46:16;4.70;;;0.98;;
30571;SDS011;17348;50.948;10.696;2022-09-09T11:49:27;2.30;;;0.88;;
30571;SDS011;17348;50.948;10.696;2022-09-09T11:52:36;5.22;;;1.15;;
30571;SDS011;17348;50.948;10.696;2022-09-09T11:55:39;5.13;;;0.93;;
30571;SDS011;17348;50.948;10.696;2022-09-09T11:58:43;11.18;;;0.85;;
30571;SDS011;17348;50.948;10.696;2022-09-09T12:01:55;6.38;;;0.70;;
30571;SDS011;17348;50.948;10.696;2022-09-09T12:05:00;1.70;;;0.75;;
30571;SDS011;17348;50.948;10.696;2022-09-09T12:08:07;2.70;;;0.63;;
30571;SDS011;17348;50.948;10.696;2022-09-09T12:11:12;5.60;;;0.60;;
30571;SDS011;17348;50.948;10.696;2022-09-09T12:14:34;5.45;;;0.55;;
30571;SDS011;17348;50.948;10.696;2022-09-09T12:17:41;4.82;;;0.75;;
30571;SDS011;17348;50.948;10.696;2022-09-09T12:20:50;2.50;;;0.43;;
30571;SDS011;17348;50.948;10.696;2022-09-09T12:23:59;2.67;;;0.47;;
30571;SDS011;17348;50.948;10.696;2022-09-09T12:27:07;2.28;;;0.80;;
30571;SDS011;17348;50.948;10.696;2022-09-09T12:30:17;1.25;;;0.32;;
30571;SDS011;17348;50.948;10.696;2022-09-09T12:33:22;1.42;;;0.17;;
30571;SDS011;17348;50.948;10.696;2022-09-09T12:36:27;2.25;;;0.32;;
30571;SDS011;17348;50.948;10.696;2022-09-09T12:39:33;3.38;;;0.55;;
30571;SDS011;17348;50.948;10.696;2022-09-09T12:42:39;2.08;;;0.38;;
30571;SDS011;17348;50.948;10.696;2022-09-09T12:45:42;2.88;;;0.50;;
30571;SDS011;17348;50.948;10.696;2022-09-09T12:48:45;3.38;;;0.60;;
30571;SDS011;17348;50.948;10.696;2022-09-09T12:51:49;2.40;;;0.30;;
30571;SDS011;17348;50.948;10.696;2022-09-09T12:54:52;6.45;;;0.40;;
30571;SDS011;17348;50.948;10.696;2022-09-09T12:57:55;1.38;;;0.45;;
30571;SDS011;17348;50.948;10.696;2022-09-09T13:01:00;3.55;;;0.50;;
30571;SDS011;17348;50.948;10.696;2022-09-09T13:04:15;7.65;;;0.77;;
30571;SDS011;17348;50.948;10.696;2022-09-09T13:07:23;4.63;;;0.60;;
30571;SDS011;17348;50.948;10.696;2022-09-09T13:10:27;2.35;;;0.50;;
30571;SDS011;17348;50.948;10.696;2022-09-09T13:13:34;3.67;;;0.70;;
30571;SDS011;17348;50.948;10.696;2022-09-09T13:16:38;1.27;;;0.20;;
30571;SDS011;17348;50.948;10.696;2022-09-09T13:19:43;3.55;;;0.73;;
30571;SDS011;17348;50.948;10.696;2022-09-09T13:22:49;4.93;;;0.55;;
30571;SDS011;17348;50.948;10.696;2022-09-09T13:25:53;2.45;;;0.40;;
30571;SDS011;17348;50.948;10.696;2022-09-09T13:29:07;2.35;;;0.25;;
30571;SDS011;17348;50.948;10.696;2022-09-09T13:32:16;1.00;;;0.45;;
30571;SDS011;17348;50.948;10.696;2022-09-09T13:35:22;3.45;;;0.52;;
30571;SDS011;17348;50.948;10.696;2022-09-09T13:38:26;3.88;;;0.38;;
30571;SDS011;17348;50.948;10.696;2022-09-09T13:41:32;2.50;;;0.50;;
30571;SDS011;17348;50.948;10.696;2022-09-09T13:44:37;3.28;;;0.40;;
30571;SDS011;17348;50.948;10.696;2022-09-09T13:47:42;3.80;;;0.50;;
30571;SDS011;17348;50.948;10.696;2022-09-09T13:50:53;5.15;;;0.60;;
30571;SDS011;17348;50.948;10.696;2022-09-09T13:54:00;1.67;;;0.50;;
30571;SDS011;17348;50.948;10.696;2022-09-09T13:57:03;1.42;;;0.40;;
30571;SDS011;17348;50.948;10.696;2022-09-09T14:00:06;5.68;;;0.30;;
30571;SDS011;17348;50.948;10.696;2022-09-09T14:03:13;3.63;;;0.52;;
30571;SDS011;17348;50.948;10.696;2022-09-09T14:06:15;5.88;;;0.52;;
30571;SDS011;17348;50.948;10.696;2022-09-09T14:09:20;2.25;;;0.50;;
30571;SDS011;17348;50.948;10.696;2022-09-09T14:12:22;2.28;;;0.50;;
30571;SDS011;17348;50.948;10.696;2022-09-09T14:15:25;2.47;;;0.40;;
30571;SDS011;17348;50.948;10.696;2022-09-09T14:18:28;1.58;;;0.60;;
30571;SDS011;17348;50.948;10.696;2022-09-09T14:21:30;3.25;;;0.45;;
30571;SDS011;17348;50.948;10.696;2022-09-09T14:24:34;3.78;;;0.68;;
30571;SDS011;17348;50.948;10.696;2022-09-09T14:27:36;1.95;;;0.68;;
30571;SDS011;17348;50.948;10.696;2022-09-09T14:30:40;2.63;;;0.50;;
30571;SDS011;17348;50.948;10.696;2022-09-09T14:33:44;1.65;;;0.47;;
30571;SDS011;17348;50.948;10.696;2022-09-09T14:36:47;5.60;;;0.52;;
30571;SDS011;17348;50.948;10.696;2022-09-09T14:39:51;3.78;;;0.80;;
30571;SDS011;17348;50.948;10.696;2022-09-09T14:42:54;3.40;;;0.68;;
30571;SDS011;17348;50.948;10.696;2022-09-09T14:45:56;3.10;;;0.68;;
30571;SDS011;17348;50.948;10.696;2022-09-09T14:48:59;2.83;;;0.75;;
30571;SDS011;17348;50.948;10.696;2022-09-09T14:52:01;2.17;;;0.60;;
30571;SDS011;17348;50.948;10.696;2022-09-09T14:55:06;7.65;;;0.73;;
30571;SDS011;17348;50.948;10.696;2022-09-09T14:58:09;1.90;;;0.70;;
30571;SDS011;17348;50.948;10.696;2022-09-09T15:01:13;1.45;;;0.50;;
30571;SDS011;17348;50.948;10.696;2022-09-09T15:04:17;3.97;;;0.52;;
30571;SDS011;17348;50.948;10.696;2022-09-09T15:07:20;2.13;;;0.68;;
30571;SDS011;17348;50.948;10.696;2022-09-09T15:10:24;2.15;;;0.98;;
30571;SDS011;17348;50.948;10.696;2022-09-09T15:13:27;6.32;;;0.80;;
30571;SDS011;17348;50.948;10.696;2022-09-09T15:16:29;0.45;;;0.38;;
30571;SDS011;17348;50.948;10.696;2022-09-09T15:19:32;2.88;;;0.55;;
30571;SDS011;17348;50.948;10.696;2022-09-09T15:22:34;6.82;;;0.70;;
30571;SDS011;17348;50.948;10.696;2022-09-09T15:25:39;2.45;;;0.52;;
30571;SDS011;17348;50.948;10.696;2022-09-09T15:28:52;4.93;;;0.68;;
30571;SDS011;17348;50.948;10.696;2022-09-09T15:31:55;2.03;;;0.70;;
30571;SDS011;17348;50.948;10.696;2022-09-09T15:34:57;5.78;;;0.40;;
30571;SDS011;17348;50.948;10.696;2022-09-09T15:38:01;1.80;;;0.60;;
30571;SDS011;17348;50.948;10.696;2022-09-09T15:41:06;6.22;;;0.70;;
30571;SDS011;17348;50.948;10.696;2022-09-09T15:44:09;6.28;;;0.65;;
30571;SDS011;17348;50.948;10.696;2022-09-09T15:47:12;2.15;;;0.45;;
30571;SDS011;17348;50.948;10.696;2022-09-09T15:50:15;3.60;;;0.55;;
30571;SDS011;17348;50.948;10.696;2022-09-09T15:53:19;3.58;;;0.70;;
30571;SDS011;17348;50.948;10.696;2022-09-09T15:56:23;6.25;;;0.90;;
30571;SDS011;17348;50.948;10.696;2022-09-09T15:59:26;9.45;;;1.27;;
30571;SDS011;17348;50.948;10.696;2022-09-09T16:02:30;9.18;;;1.27;;
30571;SDS011;17348;50.948;10.696;2022-09-09T16:05:33;4.15;;;0.80;;
30571;SDS011;17348;50.948;10.696;2022-09-09T16:08:36;3.05;;;0.50;;
30571;SDS011;17348;50.948;10.696;2022-09-09T16:11:40;2.38;;;0.70;;
30571;SDS011;17348;50.948;10.696;2022-09-09T16:14:43;1.60;;;1.00;;
30571;SDS011;17348;50.948;10.696;2022-09-09T16:17:45;3.78;;;1.10;;
30571;SDS011;17348;50.948;10.696;2022-09-09T16:20:52;3.15;;;0.57;;
30571;SDS011;17348;50.948;10.696;2022-09-09T16:23:56;2.60;;;0.70;;
30571;SDS011;17348;50.948;10.696;2022-09-09T16:27:02;7.00;;;0.50;;
30571;SDS011;17348;50.948;10.696;2022-09-09T16:30:05;3.03;;;0.70;;
30571;SDS011;17348;50.948;10.696;2022-09-09T16:33:08;2.22;;;0.60;;
30571;SDS011;17348;50.948;10.696;2022-09-09T16:36:11;1.77;;;0.73;;
30571;SDS011;17348;50.948;10.696;2022-09-09T16:39:16;3.35;;;0.60;;
30571;SDS011;17348;50.948;10.696;2022-09-09T16:42:21;4.25;;;0.90;;
30571;SDS011;17348;50.948;10.696;2022-09-09T16:45:23;9.43;;;0.90;;
30571;SDS011;17348;50.948;10.696;2022-09-09T16:48:26;3.33;;;0.90;;
30571;SDS011;17348;50.948;10.696;2022-09-09T16:51:30;4.35;;;1.10;;
30571;SDS011;17348;50.948;10.696;2022-09-09T16:54:33;4.90;;;1.00;;
30571;SDS011;17348;50.948;10.696;2022-09-09T16:57:37;4.53;;;0.80;;
30571;SDS011;17348;50.948;10.696;2022-09-09T17:00:39;7.55;;;1.30;;
30571;SDS011;17348;50.948;10.696;2022-09-09T17:03:41;10.00;;;0.90;;
30571;SDS011;17348;50.948;10.696;2022-09-09T17:06:45;2.40;;;1.10;;
30571;SDS011;17348;50.948;10.696;2022-09-09T17:09:49;6.70;;;1.60;;
30571;SDS011;17348;50.948;10.696;2022-09-09T17:12:53;8.02;;;2.05;;
30571;SDS011;17348;50.948;10.696;2022-09-09T17:15:55;5.75;;;2.30;;
30571;SDS011;17348;50.948;10.696;2022-09-09T17:18:58;5.78;;;2.08;;
30571;SDS011;17348;50.948;10.696;2022-09-09T17:22:01;6.97;;;1.90;;
30571;SDS011;17348;50.948;10.696;2022-09-09T17:25:04;9.88;;;3.67;;
30571;SDS011;17348;50.948;10.696;2022-09-09T17:28:08;14.13;;;4.75;;
30571;SDS011;17348;50.948;10.696;2022-09-09T17:31:11;5.78;;;2.40;;
30571;SDS011;17348;50.948;10.696;2022-09-09T17:34:15;6.90;;;3.13;;
30571;SDS011;17348;50.948;10.696;2022-09-09T17:37:18;7.13;;;2.42;;
30571;SDS011;17348;50.948;10.696;2022-09-09T17:40:20;7.25;;;1.90;;
30571;SDS011;17348;50.948;10.696;2022-09-09T17:43:24;3.00;;;1.40;;
30571;SDS011;17348;50.948;10.696;2022-09-09T17:46:27;4.13;;;1.55;;
30571;SDS011;17348;50.948;10.696;2022-09-09T17:49:30;3.67;;;1.63;;
30571;SDS011;17348;50.948;10.696;2022-09-09T17:52:33;5.25;;;1.65;;
30571;SDS011;17348;50.948;10.696;2022-09-09T17:55:35;3.55;;;1.33;;
30571;SDS011;17348;50.948;10.696;2022-09-09T17:58:39;3.90;;;1.20;;
30571;SDS011;17348;50.948;10.696;2022-09-09T18:01:42;1.90;;;0.90;;
30571;SDS011;17348;50.948;10.696;2022-09-09T18:04:45;9.10;;;1.02;;
30571;SDS011;17348;50.948;10.696;2022-09-09T18:07:48;2.58;;;0.65;;
30571;SDS011;17348;50.948;10.696;2022-09-09T18:10:51;2.38;;;0.60;;
30571;SDS011;17348;50.948;10.696;2022-09-09T18:13:57;1.15;;;0.52;;
30571;SDS011;17348;50.948;10.696;2022-09-09T18:17:01;5.00;;;1.00;;
30571;SDS011;17348;50.948;10.696;2022-09-09T18:20:04;1.98;;;0.68;;
30571;SDS011;17348;50.948;10.696;2022-09-09T18:23:07;2.38;;;0.60;;
30571;SDS011;17348;50.948;10.696;2022-09-09T18:26:10;5.35;;;0.85;;
30571;SDS011;17348;50.948;10.696;2022-09-09T18:29:15;5.38;;;0.88;;